createdAt,value
2022-11-24T00:01:27.545Z,96428.92
2022-11-24T00:04:06.311Z,96425.14
2022-11-24T00:06:36.104Z,96427.27
2022-11-24T00:09:05.896Z,96428.38
2022-11-24T00:11:35.996Z,96431.92
2022-11-24T00:14:06.177Z,96430.80
2022-11-24T00:16:36.948Z,96431.58
2022-11-24T00:19:09.423Z,96427.46
2022-11-24T00:21:38.869Z,96430.08
2022-11-24T00:24:07.133Z,96439.93
2022-11-24T00:26:37.771Z,96441.73
2022-11-24T00:29:08.027Z,96440.23
2022-11-24T00:31:38.949Z,96437.10
2022-11-24T00:34:12.731Z,96436.44
2022-11-24T00:36:42.077Z,96444.80
2022-11-24T00:39:15.160Z,96446.48
2022-11-24T00:41:43.842Z,96445.42
2022-11-24T00:44:11.978Z,96446.05
2022-11-24T00:46:40.094Z,96444.40
2022-11-24T00:49:08.465Z,96443.45
2022-11-24T00:51:36.594Z,96444.31
2022-11-24T00:54:04.789Z,96449.07
2022-11-24T00:56:33.789Z,96450.17
2022-11-24T00:59:02.024Z,96451.63
2022-11-24T01:01:33.444Z,96453.05
2022-11-24T01:04:02.275Z,96453.80
2022-11-24T01:06:32.684Z,96455.39
2022-11-24T01:09:01.004Z,96452.02
2022-11-24T01:11:54.751Z,96453.48
2022-11-24T01:14:24.468Z,96454.72
2022-11-24T01:16:53.154Z,96453.67
2022-11-24T01:19:21.636Z,96458.48
2022-11-24T01:21:50.304Z,96461.91
2022-11-24T01:24:18.414Z,96463.61
2022-11-24T01:26:46.576Z,96462.33
2022-11-24T01:29:14.593Z,96461.11
2022-11-24T01:31:42.590Z,96461.49
2022-11-24T01:34:10.773Z,96462.69
2022-11-24T01:36:38.728Z,96464.14
2022-11-24T01:39:06.813Z,96465.61
2022-11-24T01:41:35.801Z,96468.46
2022-11-24T01:44:30.925Z,96469.05
2022-11-24T01:47:03.084Z,96467.87
2022-11-24T01:49:41.921Z,96464.61
2022-11-24T01:52:19.206Z,96463.66
2022-11-24T01:54:55.309Z,96462.57
2022-11-24T01:57:37.184Z,96463.09
2022-11-24T02:00:09.392Z,96464.13
2022-11-24T02:02:46.103Z,96463.65
2022-11-24T02:05:26.291Z,96463.98
2022-11-24T02:07:57.093Z,96459.83
2022-11-24T02:10:25.144Z,96459.65
2022-11-24T02:12:56.199Z,96459.63
2022-11-24T02:15:24.782Z,96465.98
2022-11-24T02:17:52.938Z,96468.35
2022-11-24T02:20:21.221Z,96470.41
2022-11-24T02:23:05.580Z,96472.31
2022-11-24T02:25:48.863Z,96474.38
2022-11-24T02:28:21.531Z,96471.80
2022-11-24T02:30:51.246Z,96472.83
2022-11-24T02:33:21.629Z,96474.67
2022-11-24T02:35:49.769Z,96473.23
2022-11-24T02:38:17.992Z,96471.24
2022-11-24T02:40:49.297Z,96471.86
2022-11-24T02:43:22.720Z,96472.69
2022-11-24T02:45:50.838Z,96470.11
2022-11-24T02:48:18.894Z,96472.20
2022-11-24T02:50:46.979Z,96472.20
2022-11-24T02:53:15.521Z,96471.70
2022-11-24T02:55:43.627Z,96471.91
2022-11-24T02:58:11.781Z,96471.14
2022-11-24T03:00:39.731Z,96474.84
2022-11-24T03:03:07.888Z,96478.83
2022-11-24T03:05:36.040Z,96477.06
2022-11-24T03:08:04.299Z,96474.30
2022-11-24T03:10:32.840Z,96473.52
2022-11-24T03:13:00.853Z,96476.20
2022-11-24T03:15:28.843Z,96479.58
2022-11-24T03:17:57.167Z,96480.56
2022-11-24T03:20:26.048Z,96478.90
2022-11-24T03:22:54.278Z,96479.14
2022-11-24T03:25:22.492Z,96478.73
2022-11-24T03:27:51.392Z,96480.76
2022-11-24T03:30:19.544Z,96480.91
2022-11-24T03:32:47.564Z,96481.06
2022-11-24T03:35:15.672Z,96483.98
2022-11-24T03:37:43.823Z,96483.78
2022-11-24T03:40:12.158Z,96484.14
2022-11-24T03:42:40.865Z,96484.02
2022-11-24T03:45:38.112Z,96483.25
2022-11-24T03:47:57.392Z,96486.98
2022-11-24T03:50:25.465Z,96486.38
2022-11-24T03:52:53.782Z,96486.64
2022-11-24T03:55:21.887Z,96484.17
2022-11-24T03:57:49.746Z,96483.42
2022-11-24T04:00:18.024Z,96480.04
2022-11-24T04:02:46.003Z,96483.75
2022-11-24T04:05:14.771Z,96483.61
2022-11-24T04:07:42.779Z,96487.04
2022-11-24T04:10:10.782Z,96489.73
2022-11-24T04:12:44.843Z,96494.20
2022-11-24T04:15:18.656Z,96497.25
2022-11-24T04:17:47.972Z,96496.46
2022-11-24T04:20:17.099Z,96497.21
2022-11-24T04:22:45.045Z,96497.52
2022-11-24T04:25:13.385Z,96497.39
2022-11-24T04:27:41.429Z,96499.60
2022-11-24T04:30:10.203Z,96503.36
2022-11-24T04:32:38.073Z,96503.89
2022-11-24T04:35:06.342Z,96503.91
2022-11-24T04:37:34.880Z,96498.08
2022-11-24T04:40:03.252Z,96502.94
2022-11-24T04:42:31.272Z,96501.77
2022-11-24T04:44:59.369Z,96506.88
2022-11-24T04:47:27.880Z,96512.31
2022-11-24T04:49:55.939Z,96510.83
2022-11-24T04:52:25.779Z,96510.16
2022-11-24T04:54:53.868Z,96512.27
2022-11-24T04:57:25.153Z,96512.48
2022-11-24T04:59:54.484Z,96518.73
2022-11-24T05:02:22.679Z,96517.86
2022-11-24T05:04:50.712Z,96522.30
2022-11-24T05:07:19.626Z,96525.21
2022-11-24T05:10:06.817Z,96526.09
2022-11-24T05:12:34.820Z,96527.48
2022-11-24T05:15:05.003Z,96526.21
2022-11-24T05:17:36.266Z,96531.20
2022-11-24T05:20:08.377Z,96532.67
2022-11-24T05:22:36.818Z,96535.51
2022-11-24T05:25:05.088Z,96537.62
2022-11-24T05:27:33.184Z,96540.74
2022-11-24T05:30:01.232Z,96543.67
2022-11-24T05:32:29.279Z,96542.70
2022-11-24T05:34:58.340Z,96548.60
2022-11-24T05:37:28.756Z,96551.24
2022-11-24T05:39:57.281Z,96555.31
2022-11-24T05:42:46.214Z,96558.89
2022-11-24T05:45:18.169Z,96559.90
2022-11-24T05:47:47.089Z,96565.08
2022-11-24T05:50:17.679Z,96570.19
2022-11-24T05:52:46.054Z,96573.05
2022-11-24T05:55:15.379Z,96577.30
2022-11-24T05:57:43.812Z,96581.69
2022-11-24T06:00:12.844Z,96587.96
2022-11-24T06:02:41.142Z,96590.70
2022-11-24T06:05:09.926Z,96597.29
2022-11-24T06:07:38.381Z,96601.65
2022-11-24T06:10:06.676Z,96603.76
2022-11-24T06:12:34.822Z,96611.63
2022-11-24T06:15:02.967Z,96614.68
2022-11-24T06:17:31.069Z,96618.30
2022-11-24T06:19:59.057Z,96620.73
2022-11-24T06:22:27.437Z,96623.75
2022-11-24T06:24:55.629Z,96625.08
2022-11-24T06:27:24.025Z,96625.73
2022-11-24T06:29:52.318Z,96628.05
2022-11-24T06:32:20.577Z,96631.92
2022-11-24T06:34:48.852Z,96633.90
2022-11-24T06:37:17.006Z,96637.84
2022-11-24T06:39:45.030Z,96641.76
2022-11-24T06:42:13.165Z,96643.41
2022-11-24T06:44:41.818Z,96646.84
2022-11-24T06:47:09.993Z,96647.48
2022-11-24T06:49:37.951Z,96651.11
2022-11-24T06:52:06.215Z,96651.98
2022-11-24T06:54:34.669Z,96655.97
2022-11-24T06:57:02.905Z,96657.54
2022-11-24T06:59:31.055Z,96662.23
2022-11-24T07:01:59.379Z,96665.19
2022-11-24T07:04:27.861Z,96670.60
2022-11-24T07:06:55.963Z,96670.58
2022-11-24T07:09:24.093Z,96675.23
2022-11-24T07:11:55.092Z,96676.05
2022-11-24T07:14:23.351Z,96677.60
2022-11-24T07:16:51.570Z,96679.44
2022-11-24T07:19:24.495Z,96679.90
2022-11-24T07:21:53.884Z,96686.05
2022-11-24T07:24:21.925Z,96683.44
2022-11-24T07:26:50.046Z,96681.30
2022-11-24T07:29:18.244Z,96688.56
2022-11-24T07:31:46.528Z,96690.19
2022-11-24T07:34:15.015Z,96692.36
2022-11-24T07:36:45.280Z,96695.05
2022-11-24T07:39:13.408Z,96700.94
2022-11-24T07:41:41.967Z,96701.70
2022-11-24T07:44:10.377Z,96700.06
2022-11-24T07:46:38.599Z,96704.44
2022-11-24T07:49:06.571Z,96706.20
2022-11-24T07:51:34.985Z,96706.65
2022-11-24T07:54:03.624Z,96713.85
2022-11-24T07:56:31.792Z,96714.49
2022-11-24T07:59:00.670Z,96713.17
2022-11-24T08:01:29.164Z,96714.68
2022-11-24T08:03:57.749Z,96714.06
2022-11-24T08:06:38.108Z,96720.80
2022-11-24T08:09:09.094Z,96719.04
2022-11-24T08:11:37.380Z,96718.45
2022-11-24T08:14:05.970Z,96722.97
2022-11-24T08:16:34.297Z,96727.27
2022-11-24T08:19:02.558Z,96726.14
2022-11-24T08:21:30.919Z,96724.54
2022-11-24T08:24:00.419Z,96726.12
2022-11-24T08:26:29.010Z,96726.80
2022-11-24T08:28:59.037Z,96733.52
2022-11-24T08:31:33.782Z,96736.36
2022-11-24T08:34:03.891Z,96734.15
2022-11-24T08:36:33.262Z,96739.16
2022-11-24T08:39:02.303Z,96743.09
2022-11-24T08:41:31.027Z,96738.36
2022-11-24T08:43:59.831Z,96739.37
2022-11-24T08:46:28.415Z,96740.17
2022-11-24T08:48:56.904Z,96742.36
2022-11-24T08:51:27.279Z,96741.63
2022-11-24T08:54:01.213Z,96740.65
2022-11-24T08:56:31.789Z,96739.88
2022-11-24T08:59:00.690Z,96743.47
2022-11-24T09:01:29.480Z,96746.37
2022-11-24T09:03:58.202Z,96748.41
2022-11-24T09:06:31.152Z,96748.14
2022-11-24T09:09:00.203Z,96745.17
2022-11-24T09:11:29.162Z,96747.18
2022-11-24T09:13:57.949Z,96749.02
2022-11-24T09:16:29.366Z,96747.69
2022-11-24T09:19:01.175Z,96747.23
2022-11-24T09:21:33.820Z,96742.56
2022-11-24T09:24:02.198Z,96749.98
2022-11-24T09:26:33.039Z,96747.98
2022-11-24T09:29:05.532Z,96745.10
2022-11-24T09:31:36.645Z,96746.49
2022-11-24T09:34:07.971Z,96746.98
2022-11-24T09:36:37.030Z,96746.40
2022-11-24T09:39:05.765Z,96747.32
2022-11-24T09:41:43.342Z,96749.23
2022-11-24T09:44:36.749Z,96747.14
2022-11-24T09:47:31.017Z,96747.47
2022-11-24T09:50:03.684Z,96748.28
2022-11-24T09:52:44.329Z,96749.30
2022-11-24T09:55:40.649Z,96751.23
2022-11-24T09:58:30.876Z,96746.73
2022-11-24T10:01:15.547Z,96750.85
2022-11-24T10:03:52.964Z,96752.68
2022-11-24T10:06:26.438Z,96750.98
2022-11-24T10:09:16.108Z,96745.83
2022-11-24T10:12:09.795Z,96744.19
2022-11-24T10:15:04.892Z,96743.16
2022-11-24T10:17:47.883Z,96747.49
2022-11-24T10:20:37.183Z,96746.27
2022-11-24T10:23:08.364Z,96751.80
2022-11-24T10:25:58.782Z,96753.55
2022-11-24T10:28:39.577Z,96752.34
2022-11-24T10:31:32.963Z,96754.57
2022-11-24T10:34:14.093Z,96760.02
2022-11-24T10:37:05.520Z,96759.66
2022-11-24T10:40:00.410Z,96755.52
2022-11-24T10:42:33.649Z,96759.69
2022-11-24T10:45:17.519Z,96758.93
2022-11-24T10:47:46.752Z,96759.98
2022-11-24T10:50:28.713Z,96757.06
2022-11-24T10:53:09.230Z,96763.57
2022-11-24T10:55:59.004Z,96764.09
2022-11-24T10:58:38.212Z,96764.70
2022-11-24T11:01:13.171Z,96763.44
2022-11-24T11:03:57.955Z,96768.32
2022-11-24T11:06:32.241Z,96765.53
2022-11-24T11:09:07.111Z,96764.52
2022-11-24T11:11:37.223Z,96767.47
2022-11-24T11:14:07.959Z,96771.92
2022-11-24T11:16:44.095Z,96772.28
2022-11-24T11:19:50.659Z,96769.21
2022-11-24T11:22:32.592Z,96772.39
2022-11-24T11:25:07.429Z,96774.88
2022-11-24T11:27:36.498Z,96783.33
2022-11-24T11:36:16.045Z,96784.95
2022-11-24T11:38:45.384Z,96784.41
2022-11-24T11:41:20.791Z,96783.49
2022-11-24T11:44:01.332Z,96784.06
2022-11-24T11:46:33.157Z,96789.76
2022-11-24T11:49:02.576Z,96787.77
2022-11-24T11:52:01.340Z,96791.65
2022-11-24T11:54:44.857Z,96793.86
2022-11-24T11:57:31.637Z,96797.35
2022-11-24T12:00:15.160Z,96798.21
2022-11-24T12:03:14.521Z,96797.89
2022-11-24T12:06:04.966Z,96801.27
2022-11-24T12:09:19.065Z,96805.71
2022-11-24T12:12:21.470Z,96806.39
2022-11-24T12:15:10.272Z,96812.76
2022-11-24T12:17:53.067Z,96817.10
2022-11-24T12:20:59.501Z,96813.58
2022-11-24T12:23:55.781Z,96817.32
2022-11-24T12:26:39.922Z,96819.03
2022-11-24T12:29:20.754Z,96821.73
2022-11-24T12:32:30.918Z,96825.66
2022-11-24T12:35:37.779Z,96832.50
2022-11-24T12:38:30.978Z,96835.42
2022-11-24T12:41:43.706Z,96838.11
2022-11-24T12:44:26.571Z,96842.38
2022-11-24T12:47:13.818Z,96843.13
2022-11-24T12:49:54.568Z,96842.91
2022-11-24T12:52:22.828Z,96836.98
2022-11-24T12:54:51.108Z,96839.74
2022-11-24T12:57:25.538Z,96840.36
2022-11-24T13:00:16.355Z,96841.27
2022-11-24T13:02:54.224Z,96850.98
2022-11-24T13:05:48.751Z,96854.42
2022-11-24T13:08:17.019Z,96852.57
2022-11-24T13:11:00.600Z,96853.25
2022-11-24T13:14:01.640Z,96856.35
2022-11-24T13:16:48.704Z,96855.77
2022-11-24T13:19:26.600Z,96860.01
2022-11-24T13:22:07.251Z,96863.38
2022-11-24T13:24:37.964Z,96868.84
2022-11-24T13:27:15.703Z,96872.96
2022-11-24T13:29:45.017Z,96874.05
2022-11-24T13:32:22.912Z,96870.50
2022-11-24T13:34:55.015Z,96873.23
2022-11-24T13:37:28.881Z,96876.58
2022-11-24T13:40:30.100Z,96881.81
2022-11-24T13:42:58.996Z,96886.98
2022-11-24T13:45:40.718Z,96884.20
2022-11-24T13:48:22.484Z,96884.04
2022-11-24T13:50:51.762Z,96889.06
2022-11-24T13:53:36.332Z,96890.73
2022-11-24T13:56:13.994Z,96891.08
2022-11-24T13:58:48.448Z,96892.30
2022-11-24T14:01:26.353Z,96895.64
2022-11-24T14:04:33.736Z,96895.84
2022-11-24T14:07:09.878Z,96898.94
2022-11-24T14:09:51.321Z,96896.89
2022-11-24T14:12:25.405Z,96895.90
2022-11-24T14:15:13.008Z,96903.98
2022-11-24T14:17:41.704Z,96908.14
2022-11-24T14:20:23.184Z,96912.30
2022-11-24T14:22:55.840Z,96917.52
2022-11-24T14:25:32.648Z,96922.74
2022-11-24T14:28:01.620Z,96923.63
2022-11-24T14:30:30.581Z,96919.65
2022-11-24T14:33:01.486Z,96921.71
2022-11-24T14:35:35.302Z,96922.58
2022-11-24T14:38:05.955Z,96925.19
2022-11-24T14:40:50.784Z,96930.39
2022-11-24T14:43:23.011Z,96932.60
2022-11-24T14:46:12.714Z,96935.52
2022-11-24T14:48:50.259Z,96933.04
2022-11-24T14:51:35.818Z,96933.83
2022-11-24T14:54:14.940Z,96934.26
2022-11-24T14:57:06.882Z,96936.24
2022-11-24T14:59:38.564Z,96941.02
2022-11-24T15:02:45.272Z,96942.33
2022-11-24T15:05:19.026Z,96948.75
2022-11-24T15:07:50.815Z,96946.81
2022-11-24T15:10:40.820Z,96947.81
2022-11-24T15:13:53.426Z,96944.83
2022-11-24T15:16:26.287Z,96949.53
2022-11-24T15:19:02.462Z,96951.98
2022-11-24T15:21:35.787Z,96961.63
2022-11-24T15:24:07.120Z,96963.73
2022-11-24T15:26:41.498Z,96963.02
2022-11-24T15:29:12.113Z,96959.52
2022-11-24T15:31:44.210Z,96961.61
2022-11-24T15:34:16.224Z,96966.96
2022-11-24T15:36:45.110Z,96968.17
2022-11-24T15:39:13.923Z,96966.94
2022-11-24T15:41:42.735Z,96972.33
2022-11-24T15:44:11.515Z,96975.88
2022-11-24T15:46:40.343Z,96980.06
2022-11-24T15:49:09.006Z,96980.61
2022-11-24T15:51:42.795Z,96982.67
2022-11-24T15:54:17.708Z,96987.48
2022-11-24T15:56:46.301Z,96989.39
2022-11-24T15:59:21.265Z,96992.88
2022-11-24T16:01:50.917Z,96995.46
2022-11-24T16:04:19.747Z,96998.41
2022-11-24T16:06:48.142Z,96997.88
2022-11-24T16:09:18.275Z,97005.10
2022-11-24T16:11:46.790Z,97008.38
2022-11-24T16:14:15.076Z,97008.54
2022-11-24T16:16:43.746Z,97009.71
2022-11-24T16:19:12.628Z,97011.58
2022-11-24T16:21:41.021Z,97011.21
2022-11-24T16:24:09.423Z,97010.46
2022-11-24T16:26:37.707Z,97012.15
2022-11-24T16:29:06.174Z,97016.63
2022-11-24T16:31:34.711Z,97016.79
2022-11-24T16:34:03.045Z,97017.16
2022-11-24T16:36:31.216Z,97014.45
2022-11-24T16:39:00.674Z,97014.50
2022-11-24T16:41:29.256Z,97019.20
2022-11-24T16:43:57.432Z,97020.46
2022-11-24T16:46:25.689Z,97023.77
2022-11-24T16:48:57.821Z,97024.49
2022-11-24T16:51:30.114Z,97028.17
2022-11-24T16:54:03.824Z,97031.70
2022-11-24T16:56:32.485Z,97032.12
2022-11-24T16:59:01.293Z,97029.53
2022-11-24T17:01:30.501Z,97030.05
2022-11-24T17:03:59.527Z,97032.27
2022-11-24T17:06:28.578Z,97031.58
2022-11-24T17:08:56.921Z,97036.59
2022-11-24T17:11:26.772Z,97039.36
2022-11-24T17:13:57.072Z,97042.30
2022-11-24T17:16:26.706Z,97044.67
2022-11-24T17:18:55.880Z,97048.98
2022-11-24T17:21:26.573Z,97049.00
2022-11-24T17:23:56.668Z,97050.44
2022-11-24T17:26:26.148Z,97051.70
2022-11-24T17:28:55.889Z,97052.28
2022-11-24T17:31:39.901Z,97051.65
2022-11-24T17:34:08.643Z,97053.77
2022-11-24T17:36:37.170Z,97060.55
2022-11-24T17:39:07.505Z,97061.95
2022-11-24T17:41:36.110Z,97061.11
2022-11-24T17:44:05.006Z,97060.09
2022-11-24T17:46:33.657Z,97059.23
2022-11-24T17:49:06.797Z,97059.39
2022-11-24T17:51:37.638Z,97062.18
2022-11-24T17:54:31.157Z,97064.45
2022-11-24T17:56:54.373Z,97068.77
2022-11-24T17:59:22.676Z,97070.49
2022-11-24T18:01:50.719Z,97070.14
2022-11-24T18:04:18.971Z,97070.15
2022-11-24T18:06:47.258Z,97072.04
2022-11-24T18:09:15.731Z,97074.09
2022-11-24T18:11:44.014Z,97072.71
2022-11-24T18:14:12.403Z,97074.62
2022-11-24T18:16:40.842Z,97075.69
2022-11-24T18:19:11.218Z,97078.27
2022-11-24T18:21:41.899Z,97075.33
2022-11-24T18:24:11.182Z,97073.60
2022-11-24T18:26:41.776Z,97075.32
2022-11-24T18:29:11.718Z,97073.95
2022-11-24T18:31:40.341Z,97074.96
2022-11-24T18:34:08.948Z,97075.50
2022-11-24T18:36:37.118Z,97077.39
2022-11-24T18:39:07.478Z,97076.88
2022-11-24T18:41:36.431Z,97079.80
2022-11-24T18:44:08.221Z,97080.31
2022-11-24T18:46:37.641Z,97079.61
2022-11-24T18:49:07.434Z,97086.19
2022-11-24T18:51:36.427Z,97085.67
2022-11-24T18:54:05.654Z,97086.70
2022-11-24T18:56:34.109Z,97089.29
2022-11-24T18:59:02.459Z,97089.63
2022-11-24T19:01:30.888Z,97094.80
2022-11-24T19:04:02.290Z,97095.65
2022-11-24T19:06:35.514Z,97097.03
2022-11-24T19:09:25.765Z,97099.82
2022-11-24T19:11:53.879Z,97101.74
2022-11-24T19:14:21.977Z,97104.70
2022-11-24T19:16:50.417Z,97107.83
2022-11-24T19:19:18.632Z,97106.64
2022-11-24T19:21:46.604Z,97107.52
2022-11-24T19:24:14.737Z,97109.93
2022-11-24T19:26:42.858Z,97114.27
2022-11-24T19:29:11.176Z,97114.45
2022-11-24T19:31:39.862Z,97116.54
2022-11-24T19:34:08.598Z,97118.62
2022-11-24T19:36:37.183Z,97118.60
2022-11-24T19:39:05.689Z,97124.30
2022-11-24T19:41:34.510Z,97129.32
2022-11-24T19:44:02.522Z,97130.02
2022-11-24T19:46:30.691Z,97132.10
2022-11-24T19:49:00.307Z,97135.38
2022-11-24T19:51:33.761Z,97137.13
2022-11-24T19:54:02.770Z,97144.74
2022-11-24T19:56:34.867Z,97148.73
2022-11-24T19:59:05.080Z,97147.19
2022-11-24T20:01:39.118Z,97148.24
2022-11-24T20:04:09.637Z,97149.44
2022-11-24T20:06:39.824Z,97154.10
2022-11-24T20:09:11.194Z,97156.52
2022-11-24T20:11:40.596Z,97155.14
2022-11-24T20:14:12.732Z,97159.13
2022-11-24T20:16:42.317Z,97161.54
2022-11-24T20:19:12.852Z,97163.27
2022-11-24T20:21:46.208Z,97166.18
2022-11-24T20:24:17.579Z,97167.23
2022-11-24T20:26:52.518Z,97165.49
2022-11-24T20:29:21.008Z,97165.84
2022-11-24T20:31:55.673Z,97171.55
2022-11-24T20:34:24.341Z,97173.63
2022-11-24T20:36:53.135Z,97173.45
2022-11-24T20:39:27.921Z,97176.55
2022-11-24T20:41:56.801Z,97182.94
2022-11-24T20:44:26.867Z,97183.45
2022-11-24T20:46:58.183Z,97190.52
2022-11-24T20:49:27.979Z,97195.70
2022-11-24T20:51:57.498Z,97199.67
2022-11-24T20:54:25.868Z,97201.57
2022-11-24T20:56:54.578Z,97204.17
2022-11-24T20:59:25.113Z,97203.66
2022-11-24T21:01:57.331Z,97205.75
2022-11-24T21:04:27.174Z,97206.11
2022-11-24T21:06:56.013Z,97206.47
2022-11-24T21:09:24.950Z,97207.17
2022-11-24T21:11:53.461Z,97209.25
2022-11-24T21:14:21.510Z,97210.28
2022-11-24T21:16:49.766Z,97212.21
2022-11-24T21:19:18.625Z,97213.41
2022-11-24T21:21:48.850Z,97215.84
2022-11-24T21:24:18.978Z,97212.71
2022-11-24T21:26:47.670Z,97214.45
2022-11-24T21:29:19.536Z,97215.83
2022-11-24T21:31:47.742Z,97218.75
2022-11-24T21:34:18.726Z,97217.71
2022-11-24T21:36:47.914Z,97215.81
2022-11-24T21:39:16.968Z,97218.06
2022-11-24T21:41:45.232Z,97218.06
2022-11-24T21:44:13.859Z,97221.16
2022-11-24T21:46:48.040Z,97225.12
2022-11-24T21:49:17.505Z,97228.91
2022-11-24T21:51:45.485Z,97230.80
2022-11-24T21:54:13.570Z,97234.08
2022-11-24T21:56:41.492Z,97237.87
2022-11-24T21:59:09.824Z,97240.63
2022-11-24T22:01:37.848Z,97242.17
2022-11-24T22:04:05.937Z,97244.60
2022-11-24T22:06:34.066Z,97244.25
2022-11-24T22:09:02.113Z,97247.55
2022-11-24T22:11:30.101Z,97252.40
2022-11-24T22:13:58.243Z,97250.50
2022-11-24T22:16:26.487Z,97251.38
2022-11-24T22:18:54.642Z,97249.48
2022-11-24T22:21:24.329Z,97253.80
2022-11-24T22:23:55.301Z,97251.72
2022-11-24T22:26:24.087Z,97254.49
2022-11-24T22:28:53.783Z,97256.56
2022-11-24T22:31:24.319Z,97255.70
2022-11-24T22:33:53.789Z,97256.39
2022-11-24T22:36:23.982Z,97254.82
2022-11-24T22:39:03.092Z,97258.10
2022-11-24T22:41:33.328Z,97257.08
2022-11-24T22:44:01.742Z,97254.83
2022-11-24T22:46:31.036Z,97255.34
2022-11-24T22:49:00.953Z,97254.81
2022-11-24T22:51:32.522Z,97254.80
2022-11-24T22:54:03.171Z,97257.89
2022-11-24T22:56:32.741Z,97259.59
2022-11-24T22:59:02.412Z,97260.45
2022-11-24T23:01:32.144Z,97264.08
2022-11-24T23:04:00.672Z,97263.02
2022-11-24T23:06:30.699Z,97262.33
2022-11-24T23:09:00.546Z,97265.98
2022-11-24T23:11:37.483Z,97266.33
2022-11-24T23:14:08.711Z,97268.91
2022-11-24T23:16:36.602Z,97272.35
2022-11-24T23:19:05.525Z,97274.09
2022-11-24T23:21:36.069Z,97276.51
2022-11-24T23:24:04.744Z,97282.41
2022-11-24T23:26:38.317Z,97286.58
2022-11-24T23:29:07.832Z,97288.65
2022-11-24T23:31:36.510Z,97289.32
2022-11-24T23:34:04.498Z,97291.58
2022-11-24T23:36:33.077Z,97288.98
2022-11-24T23:39:11.058Z,97288.64
2022-11-24T23:41:39.075Z,97289.17
2022-11-24T23:44:07.576Z,97296.27
2022-11-24T23:46:35.759Z,97298.86
2022-11-24T23:49:04.006Z,97299.71
2022-11-24T23:51:33.545Z,97305.27
2022-11-24T23:54:01.606Z,97310.45
2022-11-24T23:56:34.290Z,97314.60
2022-11-24T23:59:03.894Z,97316.51
